sensor_id;sensor_type;location;lat;lon;timestamp;temperature;humidity
13229;DHT22;6680;53.220;10.402;2023-08-24T00:00:19;18.20;99.90
13229;DHT22;6680;53.220;10.402;2023-08-24T00:02:46;18.20;99.90
13229;DHT22;6680;53.220;10.402;2023-08-24T00:05:13;18.20;99.90
13229;DHT22;6680;53.220;10.402;2023-08-24T00:07:39;18.20;99.90
13229;DHT22;6680;53.220;10.402;2023-08-24T00:10:06;18.20;99.90
13229;DHT22;6680;53.220;10.402;2023-08-24T00:12:33;18.20;99.90
13229;DHT22;6680;53.220;10.402;2023-08-24T00:15:02;18.10;99.90
13229;DHT22;6680;53.220;10.402;2023-08-24T00:17:29;18.10;99.90
13229;DHT22;6680;53.220;10.402;2023-08-24T00:22:23;18.20;99.90
13229;DHT22;6680;53.220;10.402;2023-08-24T00:24:50;18.20;99.90
13229;DHT22;6680;53.220;10.402;2023-08-24T00:27:16;18.20;99.90
13229;DHT22;6680;53.220;10.402;2023-08-24T00:29:43;18.20;99.90
13229;DHT22;6680;53.220;10.402;2023-08-24T00:32:11;18.20;99.90
13229;DHT22;6680;53.220;10.402;2023-08-24T00:34:38;18.10;99.90
13229;DHT22;6680;53.220;10.402;2023-08-24T00:37:04;18.10;99.90
13229;DHT22;6680;53.220;10.402;2023-08-24T00:39:31;18.00;99.90
13229;DHT22;6680;53.220;10.402;2023-08-24T00:41:58;18.00;99.90
13229;DHT22;6680;53.220;10.402;2023-08-24T00:44:24;18.00;99.90
13229;DHT22;6680;53.220;10.402;2023-08-24T00:46:52;17.90;99.90
13229;DHT22;6680;53.220;10.402;2023-08-24T00:49:21;17.90;99.90
13229;DHT22;6680;53.220;10.402;2023-08-24T00:51:47;17.90;99.90
13229;DHT22;6680;53.220;10.402;2023-08-24T00:54:15;17.90;99.90
13229;DHT22;6680;53.220;10.402;2023-08-24T00:56:42;17.90;99.90
13229;DHT22;6680;53.220;10.402;2023-08-24T00:59:09;17.80;99.90
13229;DHT22;6680;53.220;10.402;2023-08-24T01:01:35;17.80;99.90
13229;DHT22;6680;53.220;10.402;2023-08-24T01:06:30;17.80;99.90
13229;DHT22;6680;53.220;10.402;2023-08-24T01:08:58;17.70;99.90
13229;DHT22;6680;53.220;10.402;2023-08-24T01:11:32;17.80;99.90
13229;DHT22;6680;53.220;10.402;2023-08-24T01:14:09;17.70;99.90
13229;DHT22;6680;53.220;10.402;2023-08-24T01:16:43;17.70;99.90
13229;DHT22;6680;53.220;10.402;2023-08-24T01:19:25;17.70;99.90
13229;DHT22;6680;53.220;10.402;2023-08-24T01:22:02;17.70;99.90
13229;DHT22;6680;53.220;10.402;2023-08-24T01:24:33;17.60;99.90
13229;DHT22;6680;53.220;10.402;2023-08-24T01:27:04;17.60;99.90
13229;DHT22;6680;53.220;10.402;2023-08-24T01:29:31;17.60;99.90
13229;DHT22;6680;53.220;10.402;2023-08-24T01:31:58;17.60;99.90
13229;DHT22;6680;53.220;10.402;2023-08-24T01:34:25;17.50;99.90
13229;DHT22;6680;53.220;10.402;2023-08-24T01:36:51;17.50;99.90
13229;DHT22;6680;53.220;10.402;2023-08-24T01:39:28;17.40;99.90
13229;DHT22;6680;53.220;10.402;2023-08-24T01:41:59;17.40;99.90
13229;DHT22;6680;53.220;10.402;2023-08-24T01:44:29;17.30;99.90
13229;DHT22;6680;53.220;10.402;2023-08-24T01:47:02;17.20;99.90
13229;DHT22;6680;53.220;10.402;2023-08-24T01:49:30;17.20;99.90
13229;DHT22;6680;53.220;10.402;2023-08-24T01:51:58;17.10;99.90
13229;DHT22;6680;53.220;10.402;2023-08-24T01:54:25;17.10;99.90
13229;DHT22;6680;53.220;10.402;2023-08-24T01:56:52;17.00;99.90
13229;DHT22;6680;53.220;10.402;2023-08-24T01:59:19;16.80;99.90
13229;DHT22;6680;53.220;10.402;2023-08-24T02:01:47;16.80;99.90
13229;DHT22;6680;53.220;10.402;2023-08-24T02:04:13;16.70;99.90
13229;DHT22;6680;53.220;10.402;2023-08-24T02:06:40;16.60;99.90
13229;DHT22;6680;53.220;10.402;2023-08-24T02:09:07;16.60;99.90
13229;DHT22;6680;53.220;10.402;2023-08-24T02:11:34;16.50;99.90
13229;DHT22;6680;53.220;10.402;2023-08-24T02:14:01;16.40;99.90
13229;DHT22;6680;53.220;10.402;2023-08-24T02:16:28;16.40;99.90
13229;DHT22;6680;53.220;10.402;2023-08-24T02:18:57;16.40;99.90
13229;DHT22;6680;53.220;10.402;2023-08-24T02:21:23;16.50;99.90
13229;DHT22;6680;53.220;10.402;2023-08-24T02:23:50;16.40;99.90
13229;DHT22;6680;53.220;10.402;2023-08-24T02:26:16;16.40;99.90
13229;DHT22;6680;53.220;10.402;2023-08-24T02:28:43;16.40;99.90
13229;DHT22;6680;53.220;10.402;2023-08-24T02:31:10;16.40;99.90
13229;DHT22;6680;53.220;10.402;2023-08-24T02:33:37;16.40;99.90
13229;DHT22;6680;53.220;10.402;2023-08-24T02:36:05;16.40;99.90
13229;DHT22;6680;53.220;10.402;2023-08-24T02:38:32;16.30;99.90
13229;DHT22;6680;53.220;10.402;2023-08-24T02:41:02;16.30;99.90
13229;DHT22;6680;53.220;10.402;2023-08-24T02:43:29;16.20;99.90
13229;DHT22;6680;53.220;10.402;2023-08-24T02:46:00;16.20;99.90
13229;DHT22;6680;53.220;10.402;2023-08-24T02:48:26;16.20;99.90
13229;DHT22;6680;53.220;10.402;2023-08-24T02:50:53;16.10;99.90
13229;DHT22;6680;53.220;10.402;2023-08-24T02:53:21;16.00;99.90
13229;DHT22;6680;53.220;10.402;2023-08-24T02:55:48;16.00;99.90
13229;DHT22;6680;53.220;10.402;2023-08-24T02:58:15;15.90;99.90
13229;DHT22;6680;53.220;10.402;2023-08-24T03:00:41;15.90;99.90
13229;DHT22;6680;53.220;10.402;2023-08-24T03:03:08;15.70;99.90
13229;DHT22;6680;53.220;10.402;2023-08-24T03:05:35;15.90;99.90
13229;DHT22;6680;53.220;10.402;2023-08-24T03:08:02;15.90;99.90
13229;DHT22;6680;53.220;10.402;2023-08-24T03:10:34;15.90;99.90
13229;DHT22;6680;53.220;10.402;2023-08-24T03:13:01;15.90;99.90
13229;DHT22;6680;53.220;10.402;2023-08-24T03:15:29;15.80;99.90
13229;DHT22;6680;53.220;10.402;2023-08-24T03:17:56;16.00;99.90
13229;DHT22;6680;53.220;10.402;2023-08-24T03:20:23;15.80;99.90
13229;DHT22;6680;53.220;10.402;2023-08-24T03:22:49;15.90;99.90
13229;DHT22;6680;53.220;10.402;2023-08-24T03:25:16;15.80;99.90
13229;DHT22;6680;53.220;10.402;2023-08-24T03:27:44;15.80;99.90
13229;DHT22;6680;53.220;10.402;2023-08-24T03:30:11;15.80;99.90
13229;DHT22;6680;53.220;10.402;2023-08-24T03:32:39;15.70;99.90
13229;DHT22;6680;53.220;10.402;2023-08-24T03:35:07;15.70;99.90
13229;DHT22;6680;53.220;10.402;2023-08-24T03:37:33;15.70;99.90
13229;DHT22;6680;53.220;10.402;2023-08-24T03:40:00;15.70;99.90
13229;DHT22;6680;53.220;10.402;2023-08-24T03:42:28;15.70;99.90
13229;DHT22;6680;53.220;10.402;2023-08-24T03:44:56;15.70;99.90
13229;DHT22;6680;53.220;10.402;2023-08-24T03:47:23;15.60;99.90
13229;DHT22;6680;53.220;10.402;2023-08-24T03:49:49;15.70;99.90
13229;DHT22;6680;53.220;10.402;2023-08-24T03:52:16;15.60;99.90
13229;DHT22;6680;53.220;10.402;2023-08-24T03:54:43;15.60;99.90
13229;DHT22;6680;53.220;10.402;2023-08-24T03:57:09;15.50;99.90
13229;DHT22;6680;53.220;10.402;2023-08-24T03:59:36;15.50;99.90
13229;DHT22;6680;53.220;10.402;2023-08-24T04:02:04;15.40;99.90
13229;DHT22;6680;53.220;10.402;2023-08-24T04:04:31;15.40;99.90
13229;DHT22;6680;53.220;10.402;2023-08-24T04:06:58;15.40;99.90
13229;DHT22;6680;53.220;10.402;2023-08-24T04:09:25;15.40;99.90
13229;DHT22;6680;53.220;10.402;2023-08-24T04:11:52;15.30;99.90
13229;DHT22;6680;53.220;10.402;2023-08-24T04:14:18;15.30;99.90
13229;DHT22;6680;53.220;10.402;2023-08-24T04:16:45;15.30;99.90
13229;DHT22;6680;53.220;10.402;2023-08-24T04:19:14;15.20;99.90
13229;DHT22;6680;53.220;10.402;2023-08-24T04:21:44;15.10;99.90
13229;DHT22;6680;53.220;10.402;2023-08-24T04:24:10;15.30;99.90
13229;DHT22;6680;53.220;10.402;2023-08-24T04:26:37;15.30;99.90
13229;DHT22;6680;53.220;10.402;2023-08-24T04:29:03;15.40;99.90
13229;DHT22;6680;53.220;10.402;2023-08-24T04:31:30;15.80;99.90
13229;DHT22;6680;53.220;10.402;2023-08-24T04:33:57;15.50;99.90
13229;DHT22;6680;53.220;10.402;2023-08-24T04:36:25;15.60;99.90
13229;DHT22;6680;53.220;10.402;2023-08-24T04:38:51;15.70;99.90
13229;DHT22;6680;53.220;10.402;2023-08-24T04:41:18;15.70;99.90
13229;DHT22;6680;53.220;10.402;2023-08-24T04:43:45;15.90;99.90
13229;DHT22;6680;53.220;10.402;2023-08-24T04:46:11;16.00;99.90
13229;DHT22;6680;53.220;10.402;2023-08-24T04:48:38;16.10;99.90
13229;DHT22;6680;53.220;10.402;2023-08-24T04:51:05;16.20;99.90
13229;DHT22;6680;53.220;10.402;2023-08-24T04:53:33;16.30;99.90
13229;DHT22;6680;53.220;10.402;2023-08-24T04:55:59;16.30;99.90
13229;DHT22;6680;53.220;10.402;2023-08-24T04:58:26;16.40;99.90
13229;DHT22;6680;53.220;10.402;2023-08-24T05:00:52;16.50;99.90
13229;DHT22;6680;53.220;10.402;2023-08-24T05:03:20;16.60;99.90
13229;DHT22;6680;53.220;10.402;2023-08-24T05:05:47;16.60;99.90
13229;DHT22;6680;53.220;10.402;2023-08-24T05:08:14;16.60;99.90
13229;DHT22;6680;53.220;10.402;2023-08-24T05:10:42;16.60;99.90
13229;DHT22;6680;53.220;10.402;2023-08-24T05:13:09;16.60;99.90
13229;DHT22;6680;53.220;10.402;2023-08-24T05:15:35;16.70;99.90
13229;DHT22;6680;53.220;10.402;2023-08-24T05:18:02;16.70;99.90
13229;DHT22;6680;53.220;10.402;2023-08-24T05:20:29;16.70;99.90
13229;DHT22;6680;53.220;10.402;2023-08-24T05:22:56;16.80;99.90
13229;DHT22;6680;53.220;10.402;2023-08-24T05:25:23;16.80;99.90
13229;DHT22;6680;53.220;10.402;2023-08-24T05:27:51;16.90;99.90
13229;DHT22;6680;53.220;10.402;2023-08-24T05:30:18;16.90;99.90
13229;DHT22;6680;53.220;10.402;2023-08-24T05:32:44;17.00;99.90
13229;DHT22;6680;53.220;10.402;2023-08-24T05:35:11;17.10;99.90
13229;DHT22;6680;53.220;10.402;2023-08-24T05:37:38;17.20;99.90
13229;DHT22;6680;53.220;10.402;2023-08-24T05:40:05;17.30;99.90
13229;DHT22;6680;53.220;10.402;2023-08-24T05:42:32;17.30;99.90
13229;DHT22;6680;53.220;10.402;2023-08-24T05:45:00;17.40;99.90
13229;DHT22;6680;53.220;10.402;2023-08-24T05:47:27;17.40;99.90
13229;DHT22;6680;53.220;10.402;2023-08-24T05:49:54;17.40;99.90
13229;DHT22;6680;53.220;10.402;2023-08-24T05:52:20;17.40;99.90
13229;DHT22;6680;53.220;10.402;2023-08-24T05:54:47;17.40;99.90
13229;DHT22;6680;53.220;10.402;2023-08-24T05:57:14;17.40;99.90
13229;DHT22;6680;53.220;10.402;2023-08-24T05:59:40;17.30;99.90
13229;DHT22;6680;53.220;10.402;2023-08-24T06:02:08;17.20;99.90
13229;DHT22;6680;53.220;10.402;2023-08-24T06:04:35;17.30;99.90
13229;DHT22;6680;53.220;10.402;2023-08-24T06:07:01;17.20;99.90
13229;DHT22;6680;53.220;10.402;2023-08-24T06:09:30;17.00;99.90
13229;DHT22;6680;53.220;10.402;2023-08-24T06:11:57;17.20;99.90
13229;DHT22;6680;53.220;10.402;2023-08-24T06:14:23;17.20;99.90
13229;DHT22;6680;53.220;10.402;2023-08-24T06:16:50;17.40;99.90
13229;DHT22;6680;53.220;10.402;2023-08-24T06:19:19;17.50;99.90
13229;DHT22;6680;53.220;10.402;2023-08-24T06:21:46;17.60;99.90
13229;DHT22;6680;53.220;10.402;2023-08-24T06:24:13;17.80;99.90
13229;DHT22;6680;53.220;10.402;2023-08-24T06:26:40;17.80;99.90
13229;DHT22;6680;53.220;10.402;2023-08-24T06:29:06;17.90;99.90
13229;DHT22;6680;53.220;10.402;2023-08-24T06:31:33;18.00;99.90
13229;DHT22;6680;53.220;10.402;2023-08-24T06:33:59;18.00;99.90
13229;DHT22;6680;53.220;10.402;2023-08-24T06:36:27;18.10;99.90
13229;DHT22;6680;53.220;10.402;2023-08-24T06:38:55;18.20;99.90
13229;DHT22;6680;53.220;10.402;2023-08-24T06:41:21;18.60;99.90
13229;DHT22;6680;53.220;10.402;2023-08-24T06:43:48;18.40;99.90
13229;DHT22;6680;53.220;10.402;2023-08-24T06:46:15;18.50;99.90
13229;DHT22;6680;53.220;10.402;2023-08-24T06:48:41;18.60;99.90
13229;DHT22;6680;53.220;10.402;2023-08-24T06:51:09;18.70;99.90
13229;DHT22;6680;53.220;10.402;2023-08-24T06:53:37;18.80;99.90
13229;DHT22;6680;53.220;10.402;2023-08-24T06:56:04;18.90;99.90
13229;DHT22;6680;53.220;10.402;2023-08-24T06:58:30;19.00;99.90
13229;DHT22;6680;53.220;10.402;2023-08-24T07:00:57;19.00;99.90
13229;DHT22;6680;53.220;10.402;2023-08-24T07:03:23;19.10;99.90
13229;DHT22;6680;53.220;10.402;2023-08-24T07:05:50;19.40;99.90
13229;DHT22;6680;53.220;10.402;2023-08-24T07:08:17;19.50;99.90
13229;DHT22;6680;53.220;10.402;2023-08-24T07:10:45;19.70;99.90
13229;DHT22;6680;53.220;10.402;2023-08-24T07:13:12;19.80;99.90
13229;DHT22;6680;53.220;10.402;2023-08-24T07:15:38;19.80;99.90
13229;DHT22;6680;53.220;10.402;2023-08-24T07:18:05;19.80;99.90
13229;DHT22;6680;53.220;10.402;2023-08-24T07:20:33;19.70;99.90
13229;DHT22;6680;53.220;10.402;2023-08-24T07:23:00;19.80;99.90
13229;DHT22;6680;53.220;10.402;2023-08-24T07:25:26;19.80;99.90
13229;DHT22;6680;53.220;10.402;2023-08-24T07:27:55;19.80;99.90
13229;DHT22;6680;53.220;10.402;2023-08-24T07:30:24;19.90;99.90
13229;DHT22;6680;53.220;10.402;2023-08-24T07:32:50;19.80;99.90
13229;DHT22;6680;53.220;10.402;2023-08-24T07:35:17;19.90;99.90
13229;DHT22;6680;53.220;10.402;2023-08-24T07:37:46;19.90;99.90
13229;DHT22;6680;53.220;10.402;2023-08-24T07:40:13;19.90;99.90
13229;DHT22;6680;53.220;10.402;2023-08-24T07:42:43;19.90;99.90
13229;DHT22;6680;53.220;10.402;2023-08-24T07:45:12;20.00;99.90
13229;DHT22;6680;53.220;10.402;2023-08-24T07:47:39;19.90;99.90
13229;DHT22;6680;53.220;10.402;2023-08-24T07:50:06;20.00;99.90
13229;DHT22;6680;53.220;10.402;2023-08-24T07:52:33;20.10;99.90
13229;DHT22;6680;53.220;10.402;2023-08-24T07:55:00;20.10;99.90
13229;DHT22;6680;53.220;10.402;2023-08-24T07:57:29;20.20;99.90
13229;DHT22;6680;53.220;10.402;2023-08-24T07:59:57;20.20;99.90
13229;DHT22;6680;53.220;10.402;2023-08-24T08:02:24;20.30;99.90
13229;DHT22;6680;53.220;10.402;2023-08-24T08:04:55;20.40;99.90
13229;DHT22;6680;53.220;10.402;2023-08-24T08:07:23;20.50;99.90
13229;DHT22;6680;53.220;10.402;2023-08-24T08:09:50;20.50;99.90
13229;DHT22;6680;53.220;10.402;2023-08-24T08:12:16;20.60;99.90
13229;DHT22;6680;53.220;10.402;2023-08-24T08:14:43;20.60;99.90
13229;DHT22;6680;53.220;10.402;2023-08-24T08:17:10;20.60;99.90
13229;DHT22;6680;53.220;10.402;2023-08-24T08:19:38;20.70;99.90
13229;DHT22;6680;53.220;10.402;2023-08-24T08:22:05;20.70;99.90
13229;DHT22;6680;53.220;10.402;2023-08-24T08:24:31;20.70;99.90
13229;DHT22;6680;53.220;10.402;2023-08-24T08:26:58;20.80;99.90
13229;DHT22;6680;53.220;10.402;2023-08-24T08:29:25;20.80;99.90
13229;DHT22;6680;53.220;10.402;2023-08-24T08:31:52;20.80;99.90
13229;DHT22;6680;53.220;10.402;2023-08-24T08:34:18;20.90;99.90
13229;DHT22;6680;53.220;10.402;2023-08-24T08:36:46;21.00;99.90
13229;DHT22;6680;53.220;10.402;2023-08-24T08:39:13;21.10;99.90
13229;DHT22;6680;53.220;10.402;2023-08-24T08:41:42;21.20;99.90
13229;DHT22;6680;53.220;10.402;2023-08-24T08:44:13;21.30;99.90
13229;DHT22;6680;53.220;10.402;2023-08-24T08:46:41;21.30;99.90
13229;DHT22;6680;53.220;10.402;2023-08-24T08:49:08;21.40;99.90
13229;DHT22;6680;53.220;10.402;2023-08-24T08:51:36;21.50;99.90
13229;DHT22;6680;53.220;10.402;2023-08-24T08:54:04;21.40;99.90
13229;DHT22;6680;53.220;10.402;2023-08-24T08:56:31;21.50;99.90
13229;DHT22;6680;53.220;10.402;2023-08-24T08:58:59;21.50;99.90
13229;DHT22;6680;53.220;10.402;2023-08-24T09:01:27;21.70;99.90
13229;DHT22;6680;53.220;10.402;2023-08-24T09:06:21;21.80;99.90
13229;DHT22;6680;53.220;10.402;2023-08-24T09:08:49;21.90;99.90
13229;DHT22;6680;53.220;10.402;2023-08-24T09:11:18;21.80;99.90
13229;DHT22;6680;53.220;10.402;2023-08-24T09:13:45;21.90;99.90
13229;DHT22;6680;53.220;10.402;2023-08-24T09:16:11;21.90;99.90
13229;DHT22;6680;53.220;10.402;2023-08-24T09:18:43;22.00;99.90
13229;DHT22;6680;53.220;10.402;2023-08-24T09:21:10;22.10;99.90
13229;DHT22;6680;53.220;10.402;2023-08-24T09:23:38;22.20;99.90
13229;DHT22;6680;53.220;10.402;2023-08-24T09:26:05;22.20;99.90
13229;DHT22;6680;53.220;10.402;2023-08-24T09:28:33;22.30;99.90
13229;DHT22;6680;53.220;10.402;2023-08-24T09:31:01;22.50;99.90
13229;DHT22;6680;53.220;10.402;2023-08-24T09:33:29;22.50;99.90
13229;DHT22;6680;53.220;10.402;2023-08-24T09:35:56;22.50;99.90
13229;DHT22;6680;53.220;10.402;2023-08-24T09:38:27;22.50;99.90
13229;DHT22;6680;53.220;10.402;2023-08-24T09:40:55;22.50;99.90
13229;DHT22;6680;53.220;10.402;2023-08-24T09:43:22;22.60;99.90
13229;DHT22;6680;53.220;10.402;2023-08-24T09:45:51;22.60;99.90
13229;DHT22;6680;53.220;10.402;2023-08-24T09:48:18;22.70;99.90
13229;DHT22;6680;53.220;10.402;2023-08-24T09:50:46;22.80;99.90
13229;DHT22;6680;53.220;10.402;2023-08-24T09:53:16;22.90;99.90
13229;DHT22;6680;53.220;10.402;2023-08-24T09:55:45;22.90;99.90
13229;DHT22;6680;53.220;10.402;2023-08-24T09:58:15;22.80;99.90
13229;DHT22;6680;53.220;10.402;2023-08-24T10:00:45;22.80;99.90
13229;DHT22;6680;53.220;10.402;2023-08-24T10:03:16;22.90;99.90
13229;DHT22;6680;53.220;10.402;2023-08-24T10:05:46;23.10;99.90
13229;DHT22;6680;53.220;10.402;2023-08-24T10:08:14;23.20;99.90
13229;DHT22;6680;53.220;10.402;2023-08-24T10:10:42;23.20;99.90
13229;DHT22;6680;53.220;10.402;2023-08-24T10:13:20;23.30;99.90
13229;DHT22;6680;53.220;10.402;2023-08-24T10:15:49;23.30;99.90
13229;DHT22;6680;53.220;10.402;2023-08-24T10:18:18;23.40;99.90
13229;DHT22;6680;53.220;10.402;2023-08-24T10:20:47;23.50;99.90
13229;DHT22;6680;53.220;10.402;2023-08-24T10:23:15;23.60;99.90
13229;DHT22;6680;53.220;10.402;2023-08-24T10:25:43;23.60;99.90
13229;DHT22;6680;53.220;10.402;2023-08-24T10:28:13;23.60;99.90
13229;DHT22;6680;53.220;10.402;2023-08-24T10:30:41;23.60;99.90
13229;DHT22;6680;53.220;10.402;2023-08-24T10:33:10;23.60;99.90
13229;DHT22;6680;53.220;10.402;2023-08-24T10:35:39;23.70;99.90
13229;DHT22;6680;53.220;10.402;2023-08-24T10:38:06;23.70;99.90
13229;DHT22;6680;53.220;10.402;2023-08-24T10:40:33;23.80;99.90
13229;DHT22;6680;53.220;10.402;2023-08-24T10:43:02;23.80;99.90
13229;DHT22;6680;53.220;10.402;2023-08-24T10:45:54;23.90;99.90
13229;DHT22;6680;53.220;10.402;2023-08-24T10:48:22;24.00;99.90
13229;DHT22;6680;53.220;10.402;2023-08-24T10:51:17;24.10;99.90
13229;DHT22;6680;53.220;10.402;2023-08-24T10:53:46;24.20;99.90
13229;DHT22;6680;53.220;10.402;2023-08-24T10:56:13;24.20;99.90
13229;DHT22;6680;53.220;10.402;2023-08-24T10:58:41;24.20;99.90
13229;DHT22;6680;53.220;10.402;2023-08-24T11:01:14;24.20;99.90
13229;DHT22;6680;53.220;10.402;2023-08-24T11:03:41;24.30;99.90
13229;DHT22;6680;53.220;10.402;2023-08-24T11:06:20;24.40;99.90
13229;DHT22;6680;53.220;10.402;2023-08-24T11:08:47;24.40;99.90
13229;DHT22;6680;53.220;10.402;2023-08-24T11:11:21;24.50;99.90
13229;DHT22;6680;53.220;10.402;2023-08-24T11:14:12;24.50;99.90
13229;DHT22;6680;53.220;10.402;2023-08-24T11:16:40;24.50;99.90
13229;DHT22;6680;53.220;10.402;2023-08-24T11:19:07;24.60;99.90
13229;DHT22;6680;53.220;10.402;2023-08-24T11:21:36;24.50;99.90
13229;DHT22;6680;53.220;10.402;2023-08-24T11:24:04;24.60;99.90
13229;DHT22;6680;53.220;10.402;2023-08-24T11:26:31;24.60;99.90
13229;DHT22;6680;53.220;10.402;2023-08-24T11:31:25;24.80;99.90
13229;DHT22;6680;53.220;10.402;2023-08-24T11:33:54;24.60;99.90
13229;DHT22;6680;53.220;10.402;2023-08-24T11:36:22;24.70;99.90
13229;DHT22;6680;53.220;10.402;2023-08-24T11:38:56;24.70;99.90
13229;DHT22;6680;53.220;10.402;2023-08-24T11:41:23;24.80;99.90
13229;DHT22;6680;53.220;10.402;2023-08-24T11:43:58;24.90;99.90
13229;DHT22;6680;53.220;10.402;2023-08-24T11:46:27;25.00;99.90
13229;DHT22;6680;53.220;10.402;2023-08-24T11:48:54;25.20;99.90
13229;DHT22;6680;53.220;10.402;2023-08-24T11:51:20;25.50;99.90
13229;DHT22;6680;53.220;10.402;2023-08-24T11:53:47;25.50;99.90
13229;DHT22;6680;53.220;10.402;2023-08-24T11:56:15;25.50;99.90
13229;DHT22;6680;53.220;10.402;2023-08-24T11:58:48;25.60;99.90
13229;DHT22;6680;53.220;10.402;2023-08-24T12:01:15;25.60;99.90
13229;DHT22;6680;53.220;10.402;2023-08-24T12:03:42;25.70;99.90
13229;DHT22;6680;53.220;10.402;2023-08-24T12:06:11;25.80;99.90
13229;DHT22;6680;53.220;10.402;2023-08-24T12:08:38;25.80;99.90
13229;DHT22;6680;53.220;10.402;2023-08-24T12:11:11;25.80;99.90
13229;DHT22;6680;53.220;10.402;2023-08-24T12:13:43;26.00;99.90
13229;DHT22;6680;53.220;10.402;2023-08-24T12:16:10;26.00;99.90
13229;DHT22;6680;53.220;10.402;2023-08-24T12:18:47;23.60;99.90
13229;DHT22;6680;53.220;10.402;2023-08-24T12:21:14;26.10;99.90
13229;DHT22;6680;53.220;10.402;2023-08-24T12:23:41;26.20;99.90
13229;DHT22;6680;53.220;10.402;2023-08-24T12:26:07;26.20;99.90
13229;DHT22;6680;53.220;10.402;2023-08-24T12:28:34;26.30;99.90
13229;DHT22;6680;53.220;10.402;2023-08-24T12:31:02;26.40;99.90
13229;DHT22;6680;53.220;10.402;2023-08-24T12:33:30;26.50;99.90
13229;DHT22;6680;53.220;10.402;2023-08-24T12:35:57;26.60;99.90
13229;DHT22;6680;53.220;10.402;2023-08-24T12:38:25;26.70;99.90
13229;DHT22;6680;53.220;10.402;2023-08-24T12:40:52;26.80;99.90
13229;DHT22;6680;53.220;10.402;2023-08-24T12:45:46;26.90;99.90
13229;DHT22;6680;53.220;10.402;2023-08-24T12:48:14;26.80;99.90
13229;DHT22;6680;53.220;10.402;2023-08-24T12:50:40;26.70;99.90
13229;DHT22;6680;53.220;10.402;2023-08-24T12:53:07;26.50;99.90
13229;DHT22;6680;53.220;10.402;2023-08-24T12:55:37;26.50;99.90
13229;DHT22;6680;53.220;10.402;2023-08-24T12:58:04;26.40;99.90
13229;DHT22;6680;53.220;10.402;2023-08-24T13:00:31;26.30;99.90
13229;DHT22;6680;53.220;10.402;2023-08-24T13:02:57;26.20;99.90
13229;DHT22;6680;53.220;10.402;2023-08-24T13:05:25;26.20;99.90
13229;DHT22;6680;53.220;10.402;2023-08-24T13:07:52;26.20;99.90
13229;DHT22;6680;53.220;10.402;2023-08-24T13:10:19;26.30;99.90
13229;DHT22;6680;53.220;10.402;2023-08-24T13:12:45;26.30;99.90
13229;DHT22;6680;53.220;10.402;2023-08-24T13:15:12;26.40;99.90
13229;DHT22;6680;53.220;10.402;2023-08-24T13:17:39;26.50;99.90
13229;DHT22;6680;53.220;10.402;2023-08-24T13:20:06;26.50;99.90
13229;DHT22;6680;53.220;10.402;2023-08-24T13:22:35;26.50;99.90
13229;DHT22;6680;53.220;10.402;2023-08-24T13:25:01;26.50;99.90
13229;DHT22;6680;53.220;10.402;2023-08-24T13:27:28;26.50;99.90
13229;DHT22;6680;53.220;10.402;2023-08-24T13:29:56;26.50;99.90
13229;DHT22;6680;53.220;10.402;2023-08-24T13:32:26;26.60;99.90
13229;DHT22;6680;53.220;10.402;2023-08-24T13:34:52;26.60;99.90
13229;DHT22;6680;53.220;10.402;2023-08-24T13:37:19;26.70;99.90
13229;DHT22;6680;53.220;10.402;2023-08-24T13:39:47;26.80;99.90
13229;DHT22;6680;53.220;10.402;2023-08-24T13:42:13;26.90;99.90
13229;DHT22;6680;53.220;10.402;2023-08-24T13:44:40;26.90;99.90
13229;DHT22;6680;53.220;10.402;2023-08-24T13:49:34;26.90;99.90
13229;DHT22;6680;53.220;10.402;2023-08-24T13:52:01;26.90;99.90
13229;DHT22;6680;53.220;10.402;2023-08-24T13:54:27;26.90;99.90
13229;DHT22;6680;53.220;10.402;2023-08-24T13:56:57;27.00;99.90
13229;DHT22;6680;53.220;10.402;2023-08-24T13:59:25;26.90;99.90
13229;DHT22;6680;53.220;10.402;2023-08-24T14:01:52;27.10;99.90
13229;DHT22;6680;53.220;10.402;2023-08-24T14:04:19;27.20;99.90
13229;DHT22;6680;53.220;10.402;2023-08-24T14:06:45;27.30;99.90
13229;DHT22;6680;53.220;10.402;2023-08-24T14:09:13;27.50;99.90
13229;DHT22;6680;53.220;10.402;2023-08-24T14:11:40;27.60;99.90
13229;DHT22;6680;53.220;10.402;2023-08-24T14:14:08;27.70;99.90
13229;DHT22;6680;53.220;10.402;2023-08-24T14:16:35;27.90;99.90
13229;DHT22;6680;53.220;10.402;2023-08-24T14:19:02;27.90;99.90
13229;DHT22;6680;53.220;10.402;2023-08-24T14:21:28;27.70;99.90
13229;DHT22;6680;53.220;10.402;2023-08-24T14:23:55;27.80;99.90
13229;DHT22;6680;53.220;10.402;2023-08-24T14:26:21;27.70;99.90
13229;DHT22;6680;53.220;10.402;2023-08-24T14:28:49;27.70;99.90
13229;DHT22;6680;53.220;10.402;2023-08-24T14:31:17;27.60;99.90
13229;DHT22;6680;53.220;10.402;2023-08-24T14:33:44;27.50;99.90
13229;DHT22;6680;53.220;10.402;2023-08-24T14:36:10;27.50;99.90
13229;DHT22;6680;53.220;10.402;2023-08-24T14:38:38;27.40;99.90
13229;DHT22;6680;53.220;10.402;2023-08-24T14:41:06;27.40;99.90
13229;DHT22;6680;53.220;10.402;2023-08-24T14:46:00;27.30;99.90
13229;DHT22;6680;53.220;10.402;2023-08-24T14:48:28;27.40;99.90
13229;DHT22;6680;53.220;10.402;2023-08-24T14:53:22;27.40;99.90
13229;DHT22;6680;53.220;10.402;2023-08-24T15:03:11;27.50;99.90
13229;DHT22;6680;53.220;10.402;2023-08-24T15:05:42;27.40;99.90
13229;DHT22;6680;53.220;10.402;2023-08-24T15:08:09;26.60;99.90
13229;DHT22;6680;53.220;10.402;2023-08-24T15:10:36;27.30;99.90
13229;DHT22;6680;53.220;10.402;2023-08-24T15:17:58;27.20;99.90
13229;DHT22;6680;53.220;10.402;2023-08-24T15:20:24;27.10;99.90
13229;DHT22;6680;53.220;10.402;2023-08-24T15:22:52;27.00;99.90
13229;DHT22;6680;53.220;10.402;2023-08-24T15:25:19;27.00;99.90
13229;DHT22;6680;53.220;10.402;2023-08-24T15:27:47;26.90;99.90
13229;DHT22;6680;53.220;10.402;2023-08-24T15:30:13;26.80;99.90
13229;DHT22;6680;53.220;10.402;2023-08-24T15:32:40;26.70;99.90
13229;DHT22;6680;53.220;10.402;2023-08-24T15:35:07;26.70;99.90
13229;DHT22;6680;53.220;10.402;2023-08-24T15:37:34;26.70;99.90
13229;DHT22;6680;53.220;10.402;2023-08-24T15:40:02;26.60;99.90
13229;DHT22;6680;53.220;10.402;2023-08-24T15:42:29;26.60;99.90
13229;DHT22;6680;53.220;10.402;2023-08-24T15:44:56;26.50;99.90
13229;DHT22;6680;53.220;10.402;2023-08-24T15:47:23;26.40;99.90
13229;DHT22;6680;53.220;10.402;2023-08-24T15:49:49;26.40;99.90
13229;DHT22;6680;53.220;10.402;2023-08-24T15:52:16;26.30;99.90
13229;DHT22;6680;53.220;10.402;2023-08-24T15:54:43;26.30;99.90
13229;DHT22;6680;53.220;10.402;2023-08-24T15:57:11;26.30;99.90
13229;DHT22;6680;53.220;10.402;2023-08-24T15:59:38;26.20;99.90
13229;DHT22;6680;53.220;10.402;2023-08-24T16:02:04;26.20;99.90
13229;DHT22;6680;53.220;10.402;2023-08-24T16:04:31;26.10;99.90